Time;durP1;ratioP1;P1;durP2;ratioP2;P2;SDS_P1;SDS_P2;PMS_P1;PMS_P2;Temp;Humidity;BMP_temperature;BMP_pressure;BME280_temperature;BME280_humidity;BME280_pressure;Samples;Min_cycle;Max_cycle;Signal;HPM_P1;HPM_P2
2022/02/12 00:00:46;;;;;;;4.90;3.17;;;;;;;;;;4974611;28;20014;-61
2022/02/12 00:03:11;;;;;;;12.70;3.13;;;;;;;;;;4968545;28;20041;-61
2022/02/12 00:05:42;;;;;;;8.98;3.03;;;;;;;;;;4990529;28;20042;-61
2022/02/12 00:08:07;;;;;;;8.73;3.03;;;;;;;;;;4971222;28;20022;-61
2022/02/12 00:10:35;;;;;;;9.88;3.90;;;;;;;;;;4986623;28;20057;-61
2022/02/12 00:13:08;;;;;;;10.82;3.65;;;;;;;;;;4970708;28;20077;-61
2022/02/12 00:15:36;;;;;;;5.50;3.20;;;;;;;;;;4959209;28;20148;-61
2022/02/12 00:18:01;;;;;;;9.15;3.13;;;;;;;;;;4987766;28;20437;-61
2022/02/12 00:20:30;;;;;;;5.82;3.25;;;;;;;;;;4990495;28;20057;-61
2022/02/12 00:22:56;;;;;;;7.35;2.75;;;;;;;;;;4988933;28;20130;-62
2022/02/12 00:25:21;;;;;;;7.40;3.78;;;;;;;;;;4974162;28;20156;-62
2022/02/12 00:27:48;;;;;;;17.27;3.15;;;;;;;;;;4989214;28;20148;-62
2022/02/12 00:30:16;;;;;;;7.68;2.58;;;;;;;;;;4970144;28;20456;-61
2022/02/12 00:32:41;;;;;;;6.82;2.53;;;;;;;;;;4988355;28;20048;-61
2022/02/12 00:35:11;;;;;;;6.93;2.55;;;;;;;;;;4970209;28;20022;-62
2022/02/12 00:37:39;;;;;;;8.63;2.08;;;;;;;;;;4968570;28;20097;-61
2022/02/12 00:40:12;;;;;;;8.73;2.78;;;;;;;;;;4973575;28;20034;-63
2022/02/12 00:42:42;;;;;;;11.88;2.50;;;;;;;;;;4968567;28;20520;-61
2022/02/12 00:45:12;;;;;;;6.70;2.85;;;;;;;;;;4971038;28;20026;-62
2022/02/12 00:47:45;;;;;;;12.02;2.33;;;;;;;;;;4968527;28;20030;-63
2022/02/12 00:50:11;;;;;;;6.22;2.47;;;;;;;;;;4988141;28;20022;-61
2022/02/12 00:52:41;;;;;;;6.80;1.92;;;;;;;;;;4988289;28;20034;-62
2022/02/12 00:55:06;;;;;;;12.32;2.92;;;;;;;;;;4988166;28;20042;-60
2022/02/12 00:57:36;;;;;;;8.77;2.30;;;;;;;;;;4989054;28;20162;-61
2022/02/12 01:00:05;;;;;;;6.38;2.60;;;;;;;;;;4986292;28;20033;-62
2022/02/12 01:02:32;;;;;;;10.75;2.28;;;;;;;;;;4988044;28;20069;-60
2022/02/12 01:04:58;;;;;;;8.18;2.42;;;;;;;;;;4973386;28;20088;-62
2022/02/12 01:07:26;;;;;;;13.40;2.45;;;;;;;;;;4989413;28;20029;-62
2022/02/12 01:09:51;;;;;;;7.75;2.22;;;;;;;;;;4988613;28;20038;-61
2022/02/12 01:12:17;;;;;;;6.15;2.38;;;;;;;;;;4987556;28;20077;-62
2022/02/12 01:14:43;;;;;;;7.63;2.50;;;;;;;;;;4984556;28;20038;-62
2022/02/12 01:17:10;;;;;;;5.18;1.98;;;;;;;;;;4972213;28;20025;-62
2022/02/12 01:19:36;;;;;;;7.57;2.40;;;;;;;;;;4985353;28;20396;-60
2022/02/12 01:22:04;;;;;;;18.85;2.63;;;;;;;;;;4968562;28;20589;-61
2022/02/12 01:24:31;;;;;;;4.78;2.38;;;;;;;;;;4988197;28;20061;-61
2022/02/12 01:27:00;;;;;;;6.63;2.75;;;;;;;;;;4970690;28;20056;-60
2022/02/12 01:29:30;;;;;;;8.63;2.60;;;;;;;;;;4971224;28;20217;-61
2022/02/12 01:32:03;;;;;;;5.15;2.33;;;;;;;;;;4987253;28;20164;-61
2022/02/12 01:34:31;;;;;;;7.93;2.55;;;;;;;;;;4987375;28;20697;-60
2022/02/12 01:36:57;;;;;;;6.10;2.85;;;;;;;;;;4985724;28;20029;-61
2022/02/12 01:39:23;;;;;;;7.78;2.88;;;;;;;;;;4973794;28;20069;-60
2022/02/12 01:41:53;;;;;;;9.20;2.67;;;;;;;;;;4973480;28;20034;-60
2022/02/12 01:44:36;;;;;;;8.27;3.08;;;;;;;;;;4969569;28;20642;-60
2022/02/12 01:47:03;;;;;;;16.25;3.40;;;;;;;;;;4972581;28;20064;-61
2022/02/12 01:49:29;;;;;;;3.35;1.90;;;;;;;;;;4987204;28;20045;-60
2022/02/12 01:51:57;;;;;;;5.32;1.80;;;;;;;;;;4987015;28;20038;-60
2022/02/12 01:54:28;;;;;;;6.65;2.45;;;;;;;;;;4983770;28;20041;-60
2022/02/12 01:56:58;;;;;;;5.38;2.08;;;;;;;;;;4988087;28;20022;-61
2022/02/12 01:59:24;;;;;;;10.93;2.63;;;;;;;;;;4988170;28;20111;-61
2022/02/12 02:01:49;;;;;;;4.40;2.17;;;;;;;;;;4987812;28;20069;-60
2022/02/12 02:04:20;;;;;;;5.57;2.03;;;;;;;;;;4986874;28;20034;-60
2022/02/12 02:06:47;;;;;;;13.95;2.90;;;;;;;;;;4966197;28;20030;-61
2022/02/12 02:09:21;;;;;;;11.35;2.75;;;;;;;;;;4967096;28;20045;-62
2022/02/12 02:11:49;;;;;;;5.85;2.33;;;;;;;;;;4987584;28;20045;-60
2022/02/12 02:14:19;;;;;;;10.32;2.35;;;;;;;;;;4952921;28;20068;-60
2022/02/12 02:16:49;;;;;;;7.97;2.25;;;;;;;;;;4987579;28;20030;-60
2022/02/12 02:19:14;;;;;;;6.30;2.05;;;;;;;;;;4987884;28;20037;-60
2022/02/12 02:21:43;;;;;;;5.03;2.25;;;;;;;;;;4950860;28;20060;-61
2022/02/12 02:24:17;;;;;;;6.70;2.35;;;;;;;;;;4966355;28;20571;-59
2022/02/12 02:26:48;;;;;;;12.73;2.72;;;;;;;;;;4987687;28;20484;-59
2022/02/12 02:29:13;;;;;;;5.63;2.20;;;;;;;;;;4952607;28;20038;-60
2022/02/12 02:31:41;;;;;;;10.05;2.92;;;;;;;;;;4955296;28;20081;-59
2022/02/12 02:34:10;;;;;;;7.97;2.10;;;;;;;;;;4953472;28;20152;-59
2022/02/12 02:36:35;;;;;;;4.78;1.75;;;;;;;;;;4968334;28;20813;-61
2022/02/12 02:39:03;;;;;;;7.40;2.10;;;;;;;;;;4987515;28;20040;-60
2022/02/12 02:41:29;;;;;;;9.13;2.05;;;;;;;;;;4987395;28;20931;-61
2022/02/12 02:43:54;;;;;;;6.93;2.70;;;;;;;;;;4984409;28;20041;-60
2022/02/12 02:46:22;;;;;;;12.52;3.28;;;;;;;;;;4970057;28;20110;-59
2022/02/12 02:48:49;;;;;;;8.50;2.33;;;;;;;;;;4988119;28;20037;-61
2022/02/12 02:56:53;;;;;;;3.63;2.53;;;;;;;;;;4983289;28;20044;-59
2022/02/12 02:59:20;;;;;;;10.82;3.78;;;;;;;;;;4986235;28;20059;-59
2022/02/12 03:01:52;;;;;;;8.30;3.08;;;;;;;;;;4987276;28;20128;-59
2022/02/12 03:04:18;;;;;;;12.10;3.08;;;;;;;;;;4966921;28;20046;-58
2022/02/12 03:06:48;;;;;;;12.75;2.83;;;;;;;;;;4986295;28;20014;-59
2022/02/12 03:09:16;;;;;;;10.15;4.35;;;;;;;;;;4968867;28;20493;-59
2022/02/12 03:11:45;;;;;;;7.82;4.20;;;;;;;;;;4969446;28;20456;-59
2022/02/12 03:14:13;;;;;;;9.55;3.70;;;;;;;;;;4968818;28;20667;-59
2022/02/12 03:16:41;;;;;;;11.65;3.92;;;;;;;;;;4969610;28;20033;-60
2022/02/12 03:19:08;;;;;;;10.90;2.78;;;;;;;;;;4952195;28;20030;-59
2022/02/12 03:21:36;;;;;;;11.50;4.10;;;;;;;;;;4966940;28;20042;-60
2022/02/12 03:24:06;;;;;;;7.65;3.33;;;;;;;;;;4986307;28;20075;-58
2022/02/12 03:26:34;;;;;;;9.13;3.67;;;;;;;;;;4972289;28;20156;-59
2022/02/12 03:29:05;;;;;;;10.93;3.15;;;;;;;;;;4952050;28;20025;-59
2022/02/12 03:31:32;;;;;;;9.95;3.17;;;;;;;;;;4986889;28;20053;-61
2022/02/12 03:34:02;;;;;;;4.53;2.97;;;;;;;;;;4968180;28;20025;-59
2022/02/12 03:36:27;;;;;;;13.45;4.53;;;;;;;;;;4954921;28;20030;-60
2022/02/12 03:38:55;;;;;;;12.18;3.83;;;;;;;;;;4986590;28;20270;-60
2022/02/12 03:41:25;;;;;;;7.50;2.90;;;;;;;;;;4952875;28;20125;-60
2022/02/12 03:43:51;;;;;;;15.45;5.05;;;;;;;;;;4969897;28;20037;-59
2022/02/12 03:46:21;;;;;;;12.20;3.50;;;;;;;;;;4966475;28;20041;-58
2022/02/12 03:48:47;;;;;;;12.18;3.15;;;;;;;;;;4986871;28;20053;-59
2022/02/12 03:51:12;;;;;;;11.07;3.45;;;;;;;;;;4967177;28;20060;-59
2022/02/12 03:53:42;;;;;;;15.88;3.75;;;;;;;;;;4969270;28;20102;-59
2022/02/12 03:56:07;;;;;;;7.93;3.63;;;;;;;;;;4968880;28;20433;-59
2022/02/12 03:58:35;;;;;;;7.55;2.55;;;;;;;;;;4988307;28;20132;-59
2022/02/12 04:01:03;;;;;;;10.05;3.13;;;;;;;;;;4970875;28;20038;-59
2022/02/12 04:03:29;;;;;;;5.45;2.80;;;;;;;;;;4974360;28;20642;-60
2022/02/12 04:05:57;;;;;;;8.55;2.63;;;;;;;;;;4988600;28;20030;-60
2022/02/12 04:08:23;;;;;;;12.20;2.55;;;;;;;;;;4973451;28;20418;-61
2022/02/12 04:10:51;;;;;;;9.65;2.42;;;;;;;;;;4989630;28;20022;-59
2022/02/12 04:13:17;;;;;;;3.15;2.13;;;;;;;;;;4932065;28;20607;-59
2022/02/12 04:15:45;;;;;;;12.20;3.47;;;;;;;;;;4949841;28;20145;-60
2022/02/12 04:18:13;;;;;;;20.25;2.95;;;;;;;;;;4950480;28;20082;-58
2022/02/12 04:20:42;;;;;;;8.75;2.50;;;;;;;;;;4932604;28;20765;-60
2022/02/12 04:23:07;;;;;;;4.97;2.25;;;;;;;;;;4947228;28;20113;-60
2022/02/12 04:25:33;;;;;;;10.48;3.15;;;;;;;;;;4966246;28;20114;-60
2022/02/12 04:28:02;;;;;;;10.40;3.25;;;;;;;;;;4947078;28;22695;-60
2022/02/12 04:30:30;;;;;;;4.47;2.33;;;;;;;;;;4950263;28;20126;-60
2022/02/12 04:32:58;;;;;;;11.00;2.45;;;;;;;;;;4951415;28;20089;-61
2022/02/12 04:35:23;;;;;;;8.57;2.15;;;;;;;;;;4934217;28;20434;-61
2022/02/12 04:37:49;;;;;;;3.65;2.00;;;;;;;;;;4951383;28;20026;-61
2022/02/12 04:40:14;;;;;;;6.10;1.70;;;;;;;;;;4930791;28;20129;-60
2022/02/12 04:42:39;;;;;;;3.20;1.95;;;;;;;;;;4950210;28;20037;-59
2022/02/12 04:45:07;;;;;;;8.75;2.17;;;;;;;;;;4962897;28;20064;-59
2022/02/12 04:47:33;;;;;;;6.50;2.60;;;;;;;;;;4947296;28;20114;-60
2022/02/12 04:50:03;;;;;;;7.30;2.15;;;;;;;;;;4950938;28;20043;-60
2022/02/12 04:52:34;;;;;;;12.32;2.13;;;;;;;;;;4949042;28;20035;-60
2022/02/12 04:54:59;;;;;;;7.80;2.65;;;;;;;;;;4947759;28;20038;-61
2022/02/12 04:57:24;;;;;;;6.80;2.63;;;;;;;;;;4963422;28;20023;-60
2022/02/12 04:59:50;;;;;;;3.72;1.92;;;;;;;;;;4948427;28;20735;-62
2022/02/12 05:02:15;;;;;;;13.60;2.50;;;;;;;;;;4934078;28;20492;-61
2022/02/12 05:04:43;;;;;;;3.80;2.00;;;;;;;;;;4961416;28;20133;-61
2022/02/12 05:07:09;;;;;;;5.15;2.33;;;;;;;;;;4934229;28;20026;-60
2022/02/12 05:09:38;;;;;;;10.98;3.05;;;;;;;;;;4948970;28;20034;-61
2022/02/12 05:12:04;;;;;;;10.25;2.00;;;;;;;;;;4967134;28;20076;-60
2022/02/12 05:14:31;;;;;;;5.85;2.00;;;;;;;;;;4988251;28;20114;-60
2022/02/12 05:16:57;;;;;;;9.15;2.35;;;;;;;;;;4972012;28;20044;-60
2022/02/12 05:23:02;;;;;;;10.77;2.30;;;;;;;;;;4981905;28;20100;-60
2022/02/12 05:25:28;;;;;;;3.78;2.13;;;;;;;;;;4987302;28;20092;-60
2022/02/12 05:27:56;;;;;;;10.73;3.28;;;;;;;;;;4987693;28;20038;-60
2022/02/12 05:30:21;;;;;;;8.23;2.13;;;;;;;;;;4968895;28;20029;-61
2022/02/12 05:32:47;;;;;;;10.68;4.10;;;;;;;;;;4974726;28;20038;-60
2022/02/12 05:35:12;;;;;;;13.27;3.05;;;;;;;;;;4954434;28;20747;-62
2022/02/12 05:37:37;;;;;;;5.28;2.92;;;;;;;;;;4987597;28;20033;-60
2022/02/12 05:40:03;;;;;;;11.13;2.55;;;;;;;;;;4971849;28;20133;-61
2022/02/12 05:42:28;;;;;;;8.10;2.53;;;;;;;;;;4987347;28;20050;-60
2022/02/12 05:44:56;;;;;;;11.15;2.25;;;;;;;;;;4953649;28;20042;-59
2022/02/12 05:47:25;;;;;;;11.45;3.08;;;;;;;;;;4987372;28;20920;-61
2022/02/12 05:49:50;;;;;;;7.05;2.97;;;;;;;;;;4966730;28;20136;-60
2022/02/12 05:52:20;;;;;;;4.43;2.40;;;;;;;;;;4988699;28;20034;-59
2022/02/12 05:54:48;;;;;;;5.05;2.35;;;;;;;;;;4973113;28;20034;-60
2022/02/12 05:57:13;;;;;;;9.68;2.95;;;;;;;;;;4972279;28;20788;-60
2022/02/12 05:59:41;;;;;;;12.48;3.95;;;;;;;;;;4955877;28;20030;-60
2022/02/12 06:02:06;;;;;;;8.63;3.72;;;;;;;;;;4971757;28;20042;-61
2022/02/12 06:04:33;;;;;;;11.52;2.97;;;;;;;;;;4987808;28;20046;-61
2022/02/12 06:06:58;;;;;;;9.50;3.50;;;;;;;;;;4954962;28;20049;-60
2022/02/12 06:09:23;;;;;;;6.22;2.47;;;;;;;;;;4952842;28;20042;-61
2022/02/12 06:11:51;;;;;;;13.57;3.67;;;;;;;;;;4972011;28;20049;-60
2022/02/12 06:14:16;;;;;;;12.43;3.35;;;;;;;;;;4971950;28;20041;-62
2022/02/12 06:16:49;;;;;;;6.40;2.72;;;;;;;;;;4970112;28;20493;-60
2022/02/12 06:19:14;;;;;;;5.45;2.90;;;;;;;;;;4969583;28;20034;-59
2022/02/12 06:21:40;;;;;;;11.02;3.10;;;;;;;;;;4987142;28;20116;-61
2022/02/12 06:24:07;;;;;;;10.65;3.17;;;;;;;;;;4987210;28;20543;-61
2022/02/12 06:26:33;;;;;;;10.10;3.72;;;;;;;;;;4988343;28;20662;-62
2022/02/12 06:28:59;;;;;;;13.07;2.78;;;;;;;;;;4986622;28;20100;-59
2022/02/12 06:31:24;;;;;;;9.00;4.10;;;;;;;;;;4966030;28;20969;-60
2022/02/12 06:33:50;;;;;;;11.30;3.70;;;;;;;;;;4964285;28;20177;-60
2022/02/12 06:36:17;;;;;;;7.22;3.40;;;;;;;;;;4982613;28;20038;-60
2022/02/12 06:38:49;;;;;;;10.45;3.47;;;;;;;;;;4950598;28;20037;-61
2022/02/12 06:41:21;;;;;;;7.82;4.18;;;;;;;;;;4987303;28;20026;-60
2022/02/12 06:44:07;;;;;;;;;;;;;;;;;;;;;
2022/02/12 06:46:36;;;;;;;8.30;3.33;;;;;;;;;;4978569;28;20042;-60
2022/02/12 06:49:03;;;;;;;5.70;3.05;;;;;;;;;;4967595;28;20034;-60
2022/02/12 06:51:31;;;;;;;10.18;3.47;;;;;;;;;;4950638;28;20111;-60
2022/02/12 06:53:57;;;;;;;4.50;3.13;;;;;;;;;;4984890;28;20488;-60
2022/02/12 06:56:24;;;;;;;9.35;3.72;;;;;;;;;;4970711;28;20049;-61
2022/02/12 06:58:53;;;;;;;8.60;3.20;;;;;;;;;;4968272;28;20034;-59
2022/02/12 07:01:25;;;;;;;7.68;2.85;;;;;;;;;;4948518;28;20033;-59
2022/02/12 07:03:51;;;;;;;10.25;3.25;;;;;;;;;;4964797;28;20123;-62
2022/02/12 07:06:16;;;;;;;9.93;4.22;;;;;;;;;;4985700;28;20075;-62
2022/02/12 07:08:43;;;;;;;7.00;3.13;;;;;;;;;;4984113;28;20038;-61
2022/02/12 07:11:13;;;;;;;4.30;2.95;;;;;;;;;;4951427;28;20160;-60
2022/02/12 07:13:39;;;;;;;8.07;3.80;;;;;;;;;;4984590;28;20029;-60
2022/02/12 07:16:11;;;;;;;8.07;3.47;;;;;;;;;;4982433;28;20044;-60
2022/02/12 07:18:43;;;;;;;10.20;3.83;;;;;;;;;;4966192;28;20235;-60
2022/02/12 07:21:08;;;;;;;9.73;4.03;;;;;;;;;;4981373;28;20034;-62
2022/02/12 07:23:34;;;;;;;8.90;3.50;;;;;;;;;;4949349;28;20034;-58
2022/02/12 07:26:04;;;;;;;14.80;3.75;;;;;;;;;;4965297;28;20058;-60
2022/02/12 07:28:32;;;;;;;6.00;3.50;;;;;;;;;;4967483;28;22025;-60
2022/02/12 07:31:00;;;;;;;9.48;4.18;;;;;;;;;;4968446;28;20548;-61
2022/02/12 07:33:26;;;;;;;8.50;3.78;;;;;;;;;;4969083;28;20038;-61
2022/02/12 07:35:55;;;;;;;12.77;4.38;;;;;;;;;;4974005;28;20030;-59
2022/02/12 07:38:20;;;;;;;15.25;4.30;;;;;;;;;;4973248;28;20042;-60
2022/02/12 07:40:46;;;;;;;8.95;3.88;;;;;;;;;;4987834;28;20038;-59
2022/02/12 07:43:14;;;;;;;15.70;3.80;;;;;;;;;;4971188;28;20041;-60
2022/02/12 07:45:42;;;;;;;11.10;4.03;;;;;;;;;;4972171;28;20034;-60
2022/02/12 07:48:07;;;;;;;13.07;4.65;;;;;;;;;;4988220;28;20048;-60
2022/02/12 07:50:37;;;;;;;16.30;4.97;;;;;;;;;;4990993;28;20056;-60
2022/02/12 07:53:03;;;;;;;13.95;3.95;;;;;;;;;;4989358;28;20026;-59
2022/02/12 07:55:30;;;;;;;13.13;4.45;;;;;;;;;;4991573;28;20071;-60
2022/02/12 07:57:56;;;;;;;7.82;4.18;;;;;;;;;;4988038;28;20064;-60
2022/02/12 08:00:22;;;;;;;14.02;4.05;;;;;;;;;;4988400;28;20943;-59
2022/02/12 08:02:50;;;;;;;16.45;4.47;;;;;;;;;;4956348;28;20046;-60
2022/02/12 08:05:16;;;;;;;20.65;5.72;;;;;;;;;;4970359;28;20191;-59
2022/02/12 08:07:42;;;;;;;15.20;4.65;;;;;;;;;;4971773;28;20558;-59
2022/02/12 08:12:56;;;;;;;17.35;4.88;;;;;;;;;;4971028;28;20456;-60
2022/02/12 08:15:28;;;;;;;12.88;5.07;;;;;;;;;;4987349;28;20018;-60
2022/02/12 08:17:53;;;;;;;19.80;5.20;;;;;;;;;;4987782;28;20037;-60
2022/02/12 08:20:22;;;;;;;13.35;5.85;;;;;;;;;;4988159;28;22796;-60
2022/02/12 08:22:51;;;;;;;16.98;4.93;;;;;;;;;;4969233;28;20045;-62
2022/02/12 08:25:17;;;;;;;14.38;5.93;;;;;;;;;;4967256;28;20036;-60
2022/02/12 08:27:44;;;;;;;13.10;4.90;;;;;;;;;;4987464;28;20107;-59
2022/02/12 08:30:12;;;;;;;10.68;5.05;;;;;;;;;;4986238;28;20096;-61
2022/02/12 08:32:41;;;;;;;18.30;5.45;;;;;;;;;;4971441;28;20120;-60
2022/02/12 08:35:10;;;;;;;16.52;5.28;;;;;;;;;;4968509;28;20117;-60
2022/02/12 08:37:39;;;;;;;15.38;5.53;;;;;;;;;;4986856;28;20057;-60
2022/02/12 08:40:09;;;;;;;12.25;5.47;;;;;;;;;;4970189;28;20127;-60
2022/02/12 08:42:41;;;;;;;15.32;5.78;;;;;;;;;;4969559;28;20124;-60
2022/02/12 08:45:07;;;;;;;15.68;5.35;;;;;;;;;;4984113;28;20100;-58
2022/02/12 08:47:40;;;;;;;15.25;5.07;;;;;;;;;;4984517;28;20040;-58
2022/02/12 08:50:08;;;;;;;14.13;5.30;;;;;;;;;;4986604;28;20092;-59
2022/02/12 08:52:40;;;;;;;12.68;4.97;;;;;;;;;;4967541;28;20037;-59
2022/02/12 08:55:11;;;;;;;10.73;4.50;;;;;;;;;;4986265;28;20860;-59
2022/02/12 08:57:36;;;;;;;16.10;6.78;;;;;;;;;;4968559;28;20026;-59
2022/02/12 09:00:09;;;;;;;9.88;4.65;;;;;;;;;;4963008;28;20158;-60
2022/02/12 09:02:37;;;;;;;14.90;4.78;;;;;;;;;;4986940;28;20033;-59
2022/02/12 09:05:05;;;;;;;14.48;5.50;;;;;;;;;;4986308;28;20152;-59
2022/02/12 09:07:31;;;;;;;8.43;3.97;;;;;;;;;;4967922;28;20038;-59
2022/02/12 09:09:58;;;;;;;12.00;4.38;;;;;;;;;;4983779;28;20042;-59
2022/02/12 09:12:24;;;;;;;10.65;3.83;;;;;;;;;;4947768;28;20062;-59
2022/02/12 09:14:55;;;;;;;14.63;3.88;;;;;;;;;;4965321;28;20014;-59
2022/02/12 09:17:21;;;;;;;12.10;3.92;;;;;;;;;;4963956;28;20071;-58
2022/02/12 09:19:49;;;;;;;12.95;3.53;;;;;;;;;;4948094;28;20129;-59
2022/02/12 09:22:16;;;;;;;16.40;4.13;;;;;;;;;;4961942;28;20092;-58
2022/02/12 09:24:44;;;;;;;13.15;4.35;;;;;;;;;;4962237;28;20042;-59
2022/02/12 09:27:13;;;;;;;13.52;3.03;;;;;;;;;;4965952;28;22103;-59
2022/02/12 09:29:40;;;;;;;11.77;3.72;;;;;;;;;;4960898;28;20042;-58
2022/02/12 09:32:06;;;;;;;11.45;3.05;;;;;;;;;;4978220;28;20117;-58
2022/02/12 09:34:38;;;;;;;11.20;3.22;;;;;;;;;;4962540;28;20133;-58
2022/02/12 09:37:06;;;;;;;11.77;3.30;;;;;;;;;;4963295;28;20027;-57
2022/02/12 09:39:32;;;;;;;13.43;3.33;;;;;;;;;;4962556;28;20045;-59
2022/02/12 09:42:00;;;;;;;6.90;3.05;;;;;;;;;;4963154;28;20045;-58
2022/02/12 09:44:26;;;;;;;14.35;3.33;;;;;;;;;;4977215;28;20161;-59
2022/02/12 09:47:12;;;;;;;11.98;3.35;;;;;;;;;;4958312;28;20046;-59
2022/02/12 09:49:40;;;;;;;21.58;3.65;;;;;;;;;;4964526;28;21679;-59
2022/02/12 09:52:09;;;;;;;13.27;2.88;;;;;;;;;;4959677;28;20050;-59
2022/02/12 09:54:35;;;;;;;14.60;2.90;;;;;;;;;;4962535;28;20093;-59
2022/02/12 09:57:03;;;;;;;13.90;3.33;;;;;;;;;;4962878;28;20030;-59
2022/02/12 09:59:31;;;;;;;13.48;2.85;;;;;;;;;;4956216;28;20053;-60
2022/02/12 10:01:57;;;;;;;12.75;3.60;;;;;;;;;;4948272;28;20070;-59
2022/02/12 10:04:25;;;;;;;13.40;4.22;;;;;;;;;;4965384;28;20185;-59
2022/02/12 10:06:53;;;;;;;10.98;3.53;;;;;;;;;;4966398;28;20808;-59
2022/02/12 10:09:23;;;;;;;12.70;3.45;;;;;;;;;;4965708;28;20027;-59
2022/02/12 10:11:49;;;;;;;14.55;4.50;;;;;;;;;;4971790;28;20471;-58
2022/02/12 10:14:18;;;;;;;11.75;3.30;;;;;;;;;;4985680;28;20046;-59
2022/02/12 10:16:54;;;;;;;14.48;3.70;;;;;;;;;;4983765;28;21945;-59
2022/02/12 10:19:29;;;;;;;13.68;2.92;;;;;;;;;;4969085;28;20189;-59
2022/02/12 10:22:04;;;;;;;19.98;3.50;;;;;;;;;;4984433;28;20483;-59
2022/02/12 10:24:50;;;;;;;12.07;3.58;;;;;;;;;;4984803;28;20042;-58
2022/02/12 10:27:16;;;;;;;13.52;3.10;;;;;;;;;;4964966;28;20049;-58
2022/02/12 10:29:45;;;;;;;13.15;3.15;;;;;;;;;;4982318;28;20106;-58
2022/02/12 10:32:11;;;;;;;14.55;3.30;;;;;;;;;;4962328;28;20135;-58
2022/02/12 10:34:44;;;;;;;15.90;3.53;;;;;;;;;;4946352;28;20042;-58
2022/02/12 10:37:16;;;;;;;14.45;3.08;;;;;;;;;;4983722;28;21158;-58
2022/02/12 10:40:08;;;;;;;14.02;2.75;;;;;;;;;;4982379;28;20037;-59
2022/02/12 10:42:34;;;;;;;13.70;2.50;;;;;;;;;;4961533;28;20880;-59
2022/02/12 10:45:00;;;;;;;9.18;2.58;;;;;;;;;;4965952;28;20042;-60
2022/02/12 10:47:28;;;;;;;12.32;2.90;;;;;;;;;;4968415;28;20034;-59
2022/02/12 10:49:54;;;;;;;10.82;2.97;;;;;;;;;;4980464;28;20675;-58
2022/02/12 10:52:38;;;;;;;8.90;2.25;;;;;;;;;;4965961;28;20052;-59
2022/02/12 10:55:03;;;;;;;12.13;2.40;;;;;;;;;;4962298;28;20045;-59
2022/02/12 10:57:38;;;;;;;6.95;2.70;;;;;;;;;;4984414;28;20038;-60
2022/02/12 11:00:07;;;;;;;8.35;2.70;;;;;;;;;;4963649;28;20076;-61
2022/02/12 11:02:36;;;;;;;4.65;2.22;;;;;;;;;;4967514;28;20096;-60
2022/02/12 11:05:06;;;;;;;10.93;2.78;;;;;;;;;;4981685;28;20041;-60
2022/02/12 11:07:34;;;;;;;7.28;2.13;;;;;;;;;;4961079;28;20061;-59
2022/02/12 11:10:01;;;;;;;9.95;2.30;;;;;;;;;;4976621;28;20045;-59
2022/02/12 11:12:30;;;;;;;11.32;2.17;;;;;;;;;;4952809;28;20100;-61
2022/02/12 11:14:59;;;;;;;9.80;2.10;;;;;;;;;;4965989;28;20036;-59
2022/02/12 11:17:30;;;;;;;11.88;2.55;;;;;;;;;;4967658;28;20049;-59
2022/02/12 11:19:57;;;;;;;8.00;3.30;;;;;;;;;;4956443;28;21038;-60
2022/02/12 11:22:30;;;;;;;10.93;2.72;;;;;;;;;;4968986;28;20120;-60
2022/02/12 11:24:59;;;;;;;8.88;2.40;;;;;;;;;;4954486;28;20192;-61
2022/02/12 11:27:29;;;;;;;13.80;2.30;;;;;;;;;;4968697;28;20693;-61
2022/02/12 11:30:15;;;;;;;8.32;2.22;;;;;;;;;;4988958;28;20025;-60
2022/02/12 11:32:45;;;;;;;15.43;2.83;;;;;;;;;;4984486;28;20030;-61
2022/02/12 11:35:11;;;;;;;14.48;2.65;;;;;;;;;;4973766;28;20041;-61
2022/02/12 11:37:42;;;;;;;6.03;1.85;;;;;;;;;;4988372;28;20153;-60
2022/02/12 11:40:18;;;;;;;10.50;2.28;;;;;;;;;;4965578;28;20034;-61
2022/02/12 11:42:50;;;;;;;12.63;2.72;;;;;;;;;;4987136;28;20041;-61
2022/02/12 11:45:36;;;;;;;12.43;2.80;;;;;;;;;;4972615;28;20089;-61
2022/02/12 11:48:13;;;;;;;10.80;2.38;;;;;;;;;;4966902;28;20033;-62
2022/02/12 11:50:47;;;;;;;10.02;2.97;;;;;;;;;;4983230;28;21038;-61
2022/02/12 11:53:32;;;;;;;7.07;2.03;;;;;;;;;;4970217;28;20488;-64
2022/02/12 11:56:15;;;;;;;14.20;3.17;;;;;;;;;;4983472;28;20034;-62
2022/02/12 11:58:41;;;;;;;9.30;3.40;;;;;;;;;;4986158;28;20026;-62
2022/02/12 12:01:29;;;;;;;11.45;2.63;;;;;;;;;;4988185;28;20124;-62
2022/02/12 12:04:15;;;;;;;7.43;2.63;;;;;;;;;;4967401;28;20765;-62
2022/02/12 12:07:03;;;;;;;9.57;2.85;;;;;;;;;;4970342;28;20045;-62
2022/02/12 12:09:31;;;;;;;7.88;2.33;;;;;;;;;;4966811;28;20947;-62
2022/02/12 12:12:19;;;;;;;4.88;2.10;;;;;;;;;;4983379;28;20862;-60
2022/02/12 12:14:45;;;;;;;16.02;2.72;;;;;;;;;;4986228;28;20029;-61
2022/02/12 12:17:18;;;;;;;9.27;2.55;;;;;;;;;;4967118;28;20583;-62
2022/02/12 12:19:53;;;;;;;12.93;2.63;;;;;;;;;;4967192;28;20034;-61
2022/02/12 12:22:21;;;;;;;6.93;2.50;;;;;;;;;;4949371;28;20042;-62
2022/02/12 12:24:57;;;;;;;8.68;2.33;;;;;;;;;;4967820;28;20045;-61
2022/02/12 12:27:27;;;;;;;13.50;2.63;;;;;;;;;;4970448;28;20066;-60
2022/02/12 12:32:37;;;;;;;10.07;2.55;;;;;;;;;;4986541;28;20505;-63
2022/02/12 12:35:06;;;;;;;8.00;2.47;;;;;;;;;;4984849;28;20681;-62
2022/02/12 12:37:34;;;;;;;9.45;2.33;;;;;;;;;;4967402;28;20029;-62
2022/02/12 12:40:03;;;;;;;9.55;2.35;;;;;;;;;;4968977;28;20038;-63
2022/02/12 12:42:31;;;;;;;8.13;2.20;;;;;;;;;;4987228;28;21942;-63
2022/02/12 12:45:06;;;;;;;12.55;3.25;;;;;;;;;;4950130;28;21065;-64
2022/02/12 12:47:32;;;;;;;8.52;2.90;;;;;;;;;;4985515;28;20105;-64
2022/02/12 12:49:59;;;;;;;9.88;2.90;;;;;;;;;;4969566;28;20029;-64
2022/02/12 12:52:31;;;;;;;12.38;2.90;;;;;;;;;;4980582;28;20034;-64
2022/02/12 12:54:58;;;;;;;11.82;2.65;;;;;;;;;;4954660;28;20065;-63
2022/02/12 12:57:27;;;;;;;11.75;3.15;;;;;;;;;;4968398;28;20025;-63
2022/02/12 12:59:56;;;;;;;10.18;2.65;;;;;;;;;;4971194;28;20096;-64
2022/02/12 13:02:26;;;;;;;10.27;2.83;;;;;;;;;;4968414;28;20030;-62
2022/02/12 13:04:53;;;;;;;10.30;2.70;;;;;;;;;;4969836;28;20038;-62
2022/02/12 13:07:19;;;;;;;6.65;2.58;;;;;;;;;;4983563;28;20034;-63
2022/02/12 13:09:48;;;;;;;11.68;2.47;;;;;;;;;;4967728;28;20026;-63
2022/02/12 13:12:25;;;;;;;13.48;2.95;;;;;;;;;;4954651;28;21960;-63
2022/02/12 13:14:56;;;;;;;10.05;2.65;;;;;;;;;;4945319;28;21947;-63
2022/02/12 13:17:27;;;;;;;11.45;3.13;;;;;;;;;;4945799;28;20118;-64
2022/02/12 13:19:59;;;;;;;7.95;2.70;;;;;;;;;;4946381;28;20032;-64
2022/02/12 13:22:31;;;;;;;10.35;3.20;;;;;;;;;;4943132;28;20105;-62
2022/02/12 13:24:56;;;;;;;9.70;2.47;;;;;;;;;;4958886;28;20049;-61
2022/02/12 13:27:23;;;;;;;6.38;2.20;;;;;;;;;;4945105;28;20027;-64
2022/02/12 13:29:53;;;;;;;9.57;2.50;;;;;;;;;;4930114;28;20030;-62
2022/02/12 13:32:21;;;;;;;6.65;2.10;;;;;;;;;;4942966;28;20038;-63
2022/02/12 13:34:50;;;;;;;10.77;2.50;;;;;;;;;;4946851;28;20494;-60
2022/02/12 13:37:22;;;;;;;14.07;2.88;;;;;;;;;;4948461;28;20030;-62
2022/02/12 13:39:52;;;;;;;16.25;3.40;;;;;;;;;;4945670;28;20062;-63
2022/02/12 13:42:23;;;;;;;14.10;2.92;;;;;;;;;;4942633;28;21900;-62
2022/02/12 13:44:57;;;;;;;9.82;3.10;;;;;;;;;;4946272;28;20537;-62
2022/02/12 13:47:23;;;;;;;;;;;;;;;;;;4945425;28;20112;-60
2022/02/12 13:49:49;;;;;;;11.65;2.88;;;;;;;;;;4943123;28;19921;-60
2022/02/12 13:52:17;;;;;;;9.23;3.00;;;;;;;;;;4943037;28;20039;-62
2022/02/12 13:54:42;;;;;;;6.90;2.50;;;;;;;;;;4941757;28;20185;-61
2022/02/12 13:57:11;;;;;;;10.82;2.72;;;;;;;;;;4941186;28;20531;-61
2022/02/12 13:59:38;;;;;;;9.82;3.05;;;;;;;;;;4946791;28;20969;-62
2022/02/12 14:02:06;;;;;;;9.30;3.25;;;;;;;;;;4928190;28;20050;-62
2022/02/12 14:04:34;;;;;;;11.35;3.47;;;;;;;;;;4943134;28;20046;-62
2022/02/12 14:07:00;;;;;;;15.73;3.60;;;;;;;;;;4940200;28;20049;-61
2022/02/12 14:09:25;;;;;;;9.23;2.67;;;;;;;;;;4943634;28;20050;-62
2022/02/12 14:11:51;;;;;;;9.82;2.53;;;;;;;;;;4949106;28;20065;-60
2022/02/12 14:14:23;;;;;;;10.38;3.13;;;;;;;;;;4976654;28;20049;-62
2022/02/12 14:16:51;;;;;;;7.18;2.15;;;;;;;;;;4960747;28;20410;-62
2022/02/12 14:19:16;;;;;;;15.68;3.17;;;;;;;;;;4962375;28;20042;-63
2022/02/12 14:21:42;;;;;;;11.95;2.58;;;;;;;;;;4965492;28;20042;-61
2022/02/12 14:24:08;;;;;;;6.85;2.75;;;;;;;;;;4963821;28;20051;-62
2022/02/12 14:26:34;;;;;;;12.77;2.42;;;;;;;;;;4962740;28;20106;-62
2022/02/12 14:29:01;;;;;;;16.23;2.60;;;;;;;;;;4961881;28;20037;-60
2022/02/12 14:31:29;;;;;;;11.48;2.88;;;;;;;;;;4958388;28;20034;-61
2022/02/12 14:34:20;;;;;;;18.67;2.80;;;;;;;;;;4959331;28;20216;-61
2022/02/12 14:36:54;;;;;;;11.43;2.60;;;;;;;;;;4964595;28;20864;-61
2022/02/12 14:39:22;;;;;;;9.75;3.17;;;;;;;;;;4948701;28;20751;-62
2022/02/12 14:41:52;;;;;;;15.80;3.05;;;;;;;;;;4930002;28;20409;-62
2022/02/12 14:44:20;;;;;;;9.45;2.88;;;;;;;;;;4945620;28;20038;-61
2022/02/12 14:46:49;;;;;;;15.95;3.05;;;;;;;;;;4929594;28;20043;-60
2022/02/12 14:49:29;;;;;;;7.45;2.60;;;;;;;;;;4966093;28;20109;-61
2022/02/12 14:51:56;;;;;;;8.07;2.58;;;;;;;;;;4950290;28;20153;-62
2022/02/12 14:54:26;;;;;;;9.20;2.10;;;;;;;;;;4964454;28;20026;-61
2022/02/12 14:56:54;;;;;;;12.55;3.42;;;;;;;;;;4948513;28;20038;-61
2022/02/12 14:59:24;;;;;;;8.05;2.17;;;;;;;;;;4962562;28;20061;-61
2022/02/12 15:01:53;;;;;;;11.25;3.03;;;;;;;;;;4962005;28;20042;-61